Rocky Mount Wilson Regional Airport
KRWI : now visible

Airfield :











YOU CAN JOIN US ON...

 
LOGIN :

Register | Disclaimer

   EN    FR    IT 

 









Legend :    VFR   Marginal VFR   IFR   Intensive IFR   Very Intensive IFR
Visi :
Ceiling :
>= 8 km
>= 3000ft
5 to 8 km
1000 to 3000 ft
1500m to 5 km
500 to 1000 ft
800 to 1500m
200 to 500 ft
< 800m
< 200 ft
Symbols :   Thunderstorms  Fog  Heavy snow  Heavy precipitations  Wind > 20 kt






- Airport Elevation : 159 ft
- IATA code : RWI


KRWI - Rocky Mount Wilson Regional

CURRENT METAR :
  • 171953Z AUTO 34006KT 10SM FEW024 BKN044 OVC070 28/22 A3007 RMK AO2 SLP181 T02830217 $

EXPIRED METARs :
  • 171853Z AUTO 33010KT 10SM FEW027 OVC060 29/22 A3009 RMK AO2 SLP186 T02890217 $
  • 171843Z AUTO 36008KT 10SM SCT027 SCT037 OVC060 29/22 A3009 RMK AO2 T02940217 $
  • 171835Z AUTO 34008KT 10SM BKN027 BKN037 BKN055 29/22 A3009 RMK AO2 T02890217 $
  • 171753Z AUTO 36008KT 10SM FEW030 BKN036 BKN050 30/22 A3010 RMK AO2 SLP192 T03000217 10300 20239 58013 $
  • 171724Z AUTO 36008KT 10SM SCT020 BKN046 28/22 A3012 RMK AO2 T02830217 $

TAF KRWI
Valid from the 17 at 18:00 until the 18 at 18:00 UTC


171737Z 1718/1818 36008KT P6SM SCT025 BKN040
TEMPO 1718/1722 3SM -SHRA BKN025
FM180800 01002KT 4SM BR BKN005
TEMPO 1809/1812 2SM BR BKN002
FM181500 01005KT P6SM SCT025 BKN040
KZDC FIR / North America



MET'MAP, your aeronautical weather chart ! - Copyright ORBIFLY December 2007 - Disclaimer

ORBIFLY MET'MAP TEAM :

Programming & Development : Alexandra Zaïnal
Concept & original design : Baudouin d'Aumeries
Assistance for programming : Marc-Olivier Méhu
Technical & hardware support : Manuel Goepfert

Contact : metmap@orbifly.com




SOURCES & CREDITS :

   NOAA       Earth
Advisory